默认 日期 大小 文件数 浏览量 最新下载 xml
40 pdf磁力链接相关资源由用户搜索指令自动获取,结果来源于网络,本站不存储任何资料,亦不承担任何责任,请于24小时内删除,搜索到2662个磁力,用时9ms。
    ... 123861, "PlayStation Mobile Development Cookbook.pdf": 28945454, "The Montana Cowboys Heart ... Mechanical Prediction Of Thermochemical Data.pdf": 16812404, "William W Johnstone ... Concrete Steel And Offshore Structures.pdf": 16588138, "Semantic Web Technologies ...
创建时间: 2022-01-30 17:20:28 大小:372.78 MB 文件数量:83 热度:6 最近下载:2025-01-20 19:54:03
    ... SQL Server 2005 Programming.pdf": 12487734, "James Maxey ... Card Homecoming 5 Earthborn.pdf": 536701, "ActionScript Developers ... ActionScript Developers Guide to PureMVC.pdf": 6423480, "Matter of ... Of Features Stephen Laskevitch.pdf": 119032740, "For dummies ...
创建时间: 2022-01-30 17:31:47 大小:470.93 MB 文件数量:83 热度:7 最近下载:2025-02-21 06:30:03
    ... "St Lucia Extras PDF.jpg": 240793, "St Lucia Extras PDF.pdf": 16670656, "Barely ... Issue 04.pdf": 87916321, "40 Something SP280 Original.jpg": 163208, "40 Something SP280 ... Original.pdf": 40856290, "Playboy Germany ...
创建时间: 2022-01-30 18:37:23 大小:2.65 GB 文件数量:80 热度:8 最近下载:2025-01-26 19:21:14
    ... 161948, "p0dyri1anfs6g.pdf": 14233460, "40 Vol 76 2016.jpg ... pdf": 38735384, "g1rfdy0ropdn2bg.jpg": 257892, "g1rfdy0ropdn2bg.pdf": 39433540, "40 Volume 972018.jpg": 175574, "40 ... Volume 972018.pdf": ...
创建时间: 2022-01-30 18:58:22 大小:1.81 GB 文件数量:83 热度:9 最近下载:2025-01-22 14:33:07
    ... jpg": 30953, "Nonlinear Output Regulation.pdf": 14769977, "Tarzan Economics Will Page ... Contemporary Understanding James E Maddux.pdf": 32539313, "Genetic Programming For ... Sea Soldiers Osprey Publishing 1990.pdf": 3961860, "Perfect Photography Perfect ...
创建时间: 2022-01-30 19:02:18 大小:404.25 MB 文件数量:83 热度:4 最近下载:2025-02-28 05:11:03
    ... .jpg": 183538, "ClubInternational Volume2442020.pdf": 179485094, "Lecorn August 2021 ... , "Neopolitan August 2021February 2022.pdf": 16991298, "Pilaf Honey September ... Special Volume 1 Issue 5.pdf": 58576417, "STRIPLVKINKTATTOOEDCHICKSVOL127July2020.jpg": 336112 ...
创建时间: 2022-01-30 19:43:19 大小:2.55 GB 文件数量:83 热度:6 最近下载:2025-01-21 18:19:03
    ... , "2021 05 01 USEXY.pdf": 95434200, "30 40 Vol 2 2016.jpg ... ": 163145, "30 40 Vol 2 2016.pdf": 51398400, "FHM USA ... , "Playbabes Special Edition April 2020.pdf": 36704758, "BlackWidowMagazineOctoberNovember2021.jpg": 174713, " ...
创建时间: 2022-01-30 20:39:23 大小:1.94 GB 文件数量:83 热度:12 最近下载:2025-02-21 06:30:02
    ... 42487, "Philosophical Theories Of Probability.pdf": 1266818, "Travel England 7 Cambridge ... Brotherhood Religion Identity And Politics.pdf": 2934795, "Pacific Northwest Dk ... Eyewitness Travel Guides Dorling Kindersley.pdf": 91708814, "Jennifer Stearns Michael ...
创建时间: 2022-01-30 22:43:30 大小:523.99 MB 文件数量:84 热度:6 最近下载:2025-01-31 13:45:03
    ... ": 147537, "Exotic February 2020.pdf": 20955305, "SundaySportMay102020.jpg": 239810 ... "2021 04 01 Natural Bodies.pdf": 87135682, "MidweekSportJanuary192021.jpg": 237791 ... "Casa December 2021 June 2022.pdf": 16890229, "PlayboyNewZealandJanuary2021.jpg": 132286 ...
创建时间: 2022-01-30 23:56:29 大小:2.34 GB 文件数量:83 热度:7 最近下载:2025-01-21 23:49:12
    ... , "Troubleshooting Windows 7 Inside Out.pdf": 23269391, "Idyllian Amsterdam Institute R ... ": 97800, "Professional SharePoint 2013 Development.pdf": 46600130, "Secret Gospel Of Mark ... Best Of Germany Lonely Planet.pdf": 190079692, "Marriage Minded Cowboy Vicki ...
创建时间: 2022-01-31 05:10:13 大小:641.38 MB 文件数量:83 热度:6 最近下载:2025-01-04 16:10:08
    ... ": 75470, "Migrating to Windows Phone.pdf": 9554140, "Encyclopedia of Linguistics.jpg ... .jpg": 46773, "Rethinking Enterprise Storage.pdf": 4662587, "Cocaine Nation Thomas Feiling ... Programming with Test Driven Development.pdf": 7744243, "Nutrition Book How To ...
创建时间: 2022-01-31 05:26:34 大小:478.46 MB 文件数量:83 热度:3 最近下载:2025-02-07 16:17:04
    ... jpg": 17802, "40-durood-salaat-salaam-pdf.pdf": 42825708, "40-durood-salaat-salaam-pdf_jp2 ... .zip": 13349854, "40-durood ... 2377, "40-durood-salaat-salaam-pdf_text.pdf": 1738227, "40-durood-salaat-salaam ...
创建时间: 2022-01-31 06:42:06 大小:55.89 MB 文件数量:11 热度:4 最近下载:2025-01-27 02:28:09
    ... SharePoint 2013 Disaster Recovery Guide.pdf": 14711703, "Professional SharePoint 2010 Cloud ... First Principles To Professional Results.pdf": 21868153, "Vanguard Simon Dunstan ... In Battle Osprey Publishing 1981.pdf": 13852263, "Approaching Photography An ...
创建时间: 2022-01-31 08:38:43 大小:562.4 MB 文件数量:83 热度:3 最近下载:2025-01-24 11:11:03
    ... Starter.jpg": 82081, "OSGi Starter.pdf": 2630247, "Programming Android.jpg": 77261 ... jpg": 59853, "Practical Reverse Engineering.pdf": 5461505, "Valkyries Call Michelle Manus ... , "Emily Belden Husband Material Arc Pdf.pdf": 3655138, "Microsoft Expression Blend 4 ...
创建时间: 2022-01-31 12:30:34 大小:365.03 MB 文件数量:83 热度:4 最近下载:2025-01-23 06:38:04
    ... , "Internet Complete Reference Millennium Edition.pdf": 46728336, "Neighborhood Watch After the ... Started with Magento Extension Development.pdf": 4633781, "Steamed Rachel Levin ... for Dummies For Dummies 2012.pdf": 11912388, "Electrical Equipment Handbook ...
创建时间: 2022-01-31 12:48:58 大小:723.74 MB 文件数量:83 热度:4 最近下载:2025-01-23 23:51:02
    ... 186767, "Gregory Benford Fourth Dimension.pdf": 29026, "Knox A Highlander Romance ... 91038, "Beginning SharePoint 2013 Development.pdf": 22041434, "Copy of UF BookFunnel ... Interracial Organizing and Labor Radicalism.pdf": 2572789, "Newnes Open Source Robotics ...
创建时间: 2022-01-31 12:53:44 大小:251.68 MB 文件数量:83 热度:5 最近下载:2025-03-26 08:01:59
    ... 73120, "Communicating Data with Tableau.pdf": 45801201, "Maria Negroni Night Journey ... ": 19138, "Maria Negroni Night Journey pdf.pdf": 461500, "Please Consider Making A ... And Computer Assisted Intervention Miccai.pdf": 22069420, "Charles Hoffer Music ...
创建时间: 2022-01-31 14:37:12 大小:656.63 MB 文件数量:84 热度:5 最近下载:2025-01-02 08:06:03
    ... jpg": 130735, "Digital Photography Bible.pdf": 112979545, "Einsteins Fridge Paul Sen ... 59801, "Encyclopedia Of American States.pdf": 34209868, "James H Schmitz Telzey ... Hodgson Mark Marrington Producing Music.pdf": 6496183, "Pauline Fairclough Twentieth ...
创建时间: 2022-01-31 15:46:36 大小:533.85 MB 文件数量:83 热度:5 最近下载:2025-01-02 22:08:06
    ... 21897, "Windows PowerShell Unleashed.pdf": 2825708, "Two Way ... "Metcalf Anthropology The Basics.pdf": 1023861, "Power of ... Re Curious Planned Parenthood.pdf": 21192659, "Pro Smartphone ... Eds Grafting Characterization Techn.pdf": 1324445, "Algorithmic Thinking ...
创建时间: 2022-01-31 17:16:27 大小:586.14 MB 文件数量:83 热度:4 最近下载:2025-01-05 09:57:02
    ... "Travel Scotland 7 Full Pdf Ebook.pdf": 44687013, "Hell Hath ... Application Performance Testing 2009.pdf": 2431514, "Twenty ... Guide Personal Finance Demystified.pdf": 17705428, "Become A ... Speed Reading Advanced Memorization.pdf": 3405673, "Elaine Cunningham ...
创建时间: 2022-01-31 21:57:13 大小:485.5 MB 文件数量:83 热度:3 最近下载:2025-01-10 11:11:07